Wednesday, April 25, 2018, 1:09 AM EDT
Back to Local

KBTP, Butler, Butler County Airport/k W Scholter Field

Location: Renfrew, PA, United States Lat: 40.783
Local Time: 1:09 AM EDT ( 5:09 GMT) Lon: -79.95
Time Zone: US/Eastern Elev: 1246 ft

Show me the last for .
Show Decoded

2018-04-24 23:56 METAR KBTP 250356Z AUTO 10008KT 10SM -RA FEW010 OVC080 10/09 A2994 RMK AO2
                 RAE20B37 SLP148 P0000 T01000089 =
2018-04-24 22:56 METAR KBTP 250256Z AUTO 09010KT 10SM -RA SCT008 OVC060 10/09 A2996 RMK AO2
                 SLP155 P0001 60008 T01000094 58012 =
2018-04-24 22:49 METAR KBTP 250249Z AUTO 09008KT 10SM -RA SCT008 OVC060 10/09 A2997 RMK AO2 P0001
                 =
2018-04-24 21:56 METAR KBTP 250156Z AUTO 09008KT 10SM -RA BKN008 OVC015 10/ A2999 RMK AO2 CIG
                 005V012 SLP164 P0003 T0100 =
2018-04-24 20:56 METAR KBTP 250056Z AUTO 10008KT 8SM -RA BKN008 OVC060 10/09 A3000 RMK AO2 SLP168
                 P0004 T01000094 =
2018-04-24 19:56 METAR KBTP 242356Z AUTO 09009KT 9SM -RA BKN008 OVC065 10/09 A3000 RMK AO2 CIG
                 006V012 SLP167 P0004 60019 T01000094 10117 20100 58010 TSNO =
2018-04-24 18:56 METAR KBTP 242256Z AUTO 10009KT 6SM -RA BR OVC008 11/09 A3001 RMK AO2 CIG
                 006V018 SLP171 P0006 T01060094 TSNO =
2018-04-24 18:48 METAR KBTP 242248Z AUTO 09011KT 6SM -RA BR OVC008 11/09 A3001 RMK AO2 CIG
                 006V011 P0005 =
2018-04-24 17:56 METAR KBTP 242156Z AUTO 11009KT 10SM -RA BKN010 OVC020 11/09 A3003 RMK AO2
                 SLP176 P0004 T01060094 =
2018-04-24 16:56 METAR KBTP 242056Z AUTO 10010KT 10SM -RA BKN013 OVC037 11/09 A3003 RMK AO2
                 SLP177 P0002 60005 T01060094 58013 =
2018-04-24 15:56 METAR KBTP 241956Z AUTO 10012KT 9SM -RA BKN013 BKN021 OVC036 11/09 A3005 RMK AO2
                 SLP185 P0001 T01110094 =
2018-04-24 15:54 METAR KBTP 241954Z AUTO 09010KT 9SM -RA SCT013 BKN021 OVC034 11/09 A3006 RMK AO2
                 P0001 =
2018-04-24 15:41 METAR KBTP 241941Z AUTO 10010G18KT 10SM -RA BKN014 BKN029 OVC050 11/09 A3006 RMK
                 AO2 P0001 =
2018-04-24 15:32 METAR KBTP 241932Z AUTO 10014KT 10SM -RA SCT011 BKN017 OVC050 11/09 A3006 RMK
                 AO2 P0000 =
2018-04-24 15:13 METAR KBTP 241913Z AUTO 10011G19KT 10SM -RA BKN011 OVC019 11/09 A3007 RMK AO2
                 P0000 =
2018-04-24 14:56 METAR KBTP 241856Z AUTO 09011KT 10SM -RA BKN009 OVC013 11/10 A3007 RMK AO2 CIG
                 007V011 SLP191 P0002 T01110100 =
2018-04-24 13:56 METAR KBTP 241756Z AUTO 10011KT 10SM -RA BKN009 OVC014 11/09 A3010 RMK AO2 CIG
                 006V010 SLP199 P0004 60015 T01060094 10106 20094 56013 =
2018-04-24 12:56 METAR KBTP 241656Z AUTO 08011G18KT 10SM -RA BKN009 OVC049 10/09 A3011 RMK AO2
                 CIG 007V014 SLP204 P0005 T01000089 =
2018-04-24 12:53 METAR KBTP 241653Z AUTO 09011KT 10SM -RA SCT010 BKN029 OVC049 10/09 A3011 RMK
                 AO2 P0005 =
2018-04-24 12:43 METAR KBTP 241643Z AUTO 10012KT 10SM -RA BKN008 OVC049 09/08 A3012 RMK AO2 CIG
                 007V014 P0004 =
2018-04-24 12:36 METAR KBTP 241636Z AUTO 09012KT 9SM -RA SCT008 BKN029 OVC047 09/08 A3012 RMK AO2
                 P0004 =
2018-04-24 11:56 METAR KBTP 241556Z AUTO 09011KT 10SM -RA BKN035 OVC050 10/08 A3014 RMK AO2
                 SLP212 P0002 T01000083 =
2018-04-24 10:56 METAR KBTP 241456Z AUTO 10008KT 10SM -RA OVC043 10/07 A3016 RMK AO2 SLP219 P0003
                 60004 T01000072 58009 =
2018-04-24 09:56 METAR KBTP 241356Z AUTO 10009KT 10SM -RA FEW037 OVC049 10/06 A3017 RMK AO2
                 SLP223 P0001 T01000061 =
2018-04-24 08:56 METAR KBTP 241256Z AUTO 09008KT 10SM -RA FEW041 OVC049 11/05 A3018 RMK AO2 RAB39
                 SLP226 P0000 T01060050 =
2018-04-24 07:56 METAR KBTP 241156Z AUTO 09009KT 10SM OVC080 11/05 A3019 RMK AO2 SLP228 60002
                 70002 T01060050 10122 20094 56004 =
2018-04-24 06:56 METAR KBTP 241056Z AUTO 08006KT 10SM OVC095 09/06 A3019 RMK AO2 SLP228 T00940056
                 =
2018-04-24 05:56 METAR KBTP 240956Z AUTO 08008KT 10SM BKN080 10/06 A3019 RMK AO2 SLP227 T01000061
                 =
2018-04-24 04:56 METAR KBTP 240856Z AUTO 10007KT 10SM OVC080 11/06 A3020 RMK AO2 SLP231 60002
                 T01060056 56004 =
2018-04-24 03:56 METAR KBTP 240756Z AUTO 11010KT 10SM OVC060 11/07 A3020 RMK AO2 RAE34 SLP230
                 P0000 T01110067 =
2018-04-24 02:56 METAR KBTP 240656Z AUTO 11008KT 10SM -RA OVC055 11/08 A3020 RMK AO2 SLP231 P0002
                 T01110078 =
2018-04-24 01:56 METAR KBTP 240556Z AUTO 11008KT 10SM -RA SCT050 OVC070 12/07 A3021 RMK AO2 RAB09
                 SLP234 P0000 60000 T01220072 10178 20122 58007 =

Support USWX by starting your Amazon purchase here.